sensor_id;sensor_type;location;lat;lon;timestamp;temperature;humidity
15156;DHT22;7678;50.058;8.306;2023-05-14T00:00:18;11.70;99.90
15156;DHT22;7678;50.058;8.306;2023-05-14T00:02:49;11.70;99.90
15156;DHT22;7678;50.058;8.306;2023-05-14T00:05:17;11.80;99.90
15156;DHT22;7678;50.058;8.306;2023-05-14T00:07:45;11.90;99.90
15156;DHT22;7678;50.058;8.306;2023-05-14T00:10:13;11.90;99.90
15156;DHT22;7678;50.058;8.306;2023-05-14T00:12:43;12.00;99.90
15156;DHT22;7678;50.058;8.306;2023-05-14T00:15:11;12.20;99.90
15156;DHT22;7678;50.058;8.306;2023-05-14T00:17:40;12.20;99.90
15156;DHT22;7678;50.058;8.306;2023-05-14T00:20:11;12.10;99.90
15156;DHT22;7678;50.058;8.306;2023-05-14T00:22:39;11.80;99.90
15156;DHT22;7678;50.058;8.306;2023-05-14T00:25:07;11.80;99.90
15156;DHT22;7678;50.058;8.306;2023-05-14T00:27:36;11.80;99.90
15156;DHT22;7678;50.058;8.306;2023-05-14T00:30:05;11.80;99.90
15156;DHT22;7678;50.058;8.306;2023-05-14T00:32:33;12.00;99.90
15156;DHT22;7678;50.058;8.306;2023-05-14T00:35:01;11.90;99.90
15156;DHT22;7678;50.058;8.306;2023-05-14T00:37:31;11.80;99.90
15156;DHT22;7678;50.058;8.306;2023-05-14T00:39:59;11.60;99.90
15156;DHT22;7678;50.058;8.306;2023-05-14T00:42:27;11.50;99.90
15156;DHT22;7678;50.058;8.306;2023-05-14T00:44:55;11.50;99.90
15156;DHT22;7678;50.058;8.306;2023-05-14T00:47:23;11.50;99.90
15156;DHT22;7678;50.058;8.306;2023-05-14T00:49:51;11.40;99.90
15156;DHT22;7678;50.058;8.306;2023-05-14T00:52:20;11.40;99.90
15156;DHT22;7678;50.058;8.306;2023-05-14T00:54:50;11.50;99.90
15156;DHT22;7678;50.058;8.306;2023-05-14T00:57:18;11.50;99.90
15156;DHT22;7678;50.058;8.306;2023-05-14T00:59:47;11.50;99.90
15156;DHT22;7678;50.058;8.306;2023-05-14T01:02:15;11.20;99.90
15156;DHT22;7678;50.058;8.306;2023-05-14T01:04:44;11.20;99.90
15156;DHT22;7678;50.058;8.306;2023-05-14T01:07:19;11.00;99.90
15156;DHT22;7678;50.058;8.306;2023-05-14T01:09:52;10.90;99.90
15156;DHT22;7678;50.058;8.306;2023-05-14T01:12:28;10.90;99.90
15156;DHT22;7678;50.058;8.306;2023-05-14T01:15:07;10.90;99.90
15156;DHT22;7678;50.058;8.306;2023-05-14T01:17:42;10.90;99.90
15156;DHT22;7678;50.058;8.306;2023-05-14T01:20:13;10.80;99.90
15156;DHT22;7678;50.058;8.306;2023-05-14T01:22:43;10.80;99.90
15156;DHT22;7678;50.058;8.306;2023-05-14T01:25:11;10.80;99.90
15156;DHT22;7678;50.058;8.306;2023-05-14T01:27:43;10.80;99.90
15156;DHT22;7678;50.058;8.306;2023-05-14T01:30:18;10.70;99.90
15156;DHT22;7678;50.058;8.306;2023-05-14T01:32:52;10.70;99.90
15156;DHT22;7678;50.058;8.306;2023-05-14T01:35:24;10.60;99.90
15156;DHT22;7678;50.058;8.306;2023-05-14T01:37:57;10.60;99.90
15156;DHT22;7678;50.058;8.306;2023-05-14T01:40:26;10.60;99.90
15156;DHT22;7678;50.058;8.306;2023-05-14T01:42:55;10.60;99.90
15156;DHT22;7678;50.058;8.306;2023-05-14T01:45:23;10.70;99.90
15156;DHT22;7678;50.058;8.306;2023-05-14T01:47:53;10.80;99.90
15156;DHT22;7678;50.058;8.306;2023-05-14T01:50:21;10.70;99.90
15156;DHT22;7678;50.058;8.306;2023-05-14T01:52:50;10.80;99.90
15156;DHT22;7678;50.058;8.306;2023-05-14T01:55:24;10.70;99.90
15156;DHT22;7678;50.058;8.306;2023-05-14T01:57:52;10.60;99.90
15156;DHT22;7678;50.058;8.306;2023-05-14T02:00:22;10.50;99.90
15156;DHT22;7678;50.058;8.306;2023-05-14T02:02:51;10.60;99.90
15156;DHT22;7678;50.058;8.306;2023-05-14T02:05:19;10.50;99.90
15156;DHT22;7678;50.058;8.306;2023-05-14T02:07:48;10.60;99.90
15156;DHT22;7678;50.058;8.306;2023-05-14T02:10:17;10.60;99.90
15156;DHT22;7678;50.058;8.306;2023-05-14T02:12:46;10.50;99.90
15156;DHT22;7678;50.058;8.306;2023-05-14T02:15:14;10.50;99.90
15156;DHT22;7678;50.058;8.306;2023-05-14T02:17:42;10.50;99.90
15156;DHT22;7678;50.058;8.306;2023-05-14T02:20:12;10.60;99.90
15156;DHT22;7678;50.058;8.306;2023-05-14T02:22:40;10.50;99.90
15156;DHT22;7678;50.058;8.306;2023-05-14T02:25:11;10.50;99.90
15156;DHT22;7678;50.058;8.306;2023-05-14T02:27:39;10.40;99.90
15156;DHT22;7678;50.058;8.306;2023-05-14T02:30:10;10.60;99.90
15156;DHT22;7678;50.058;8.306;2023-05-14T02:32:38;10.60;99.90
15156;DHT22;7678;50.058;8.306;2023-05-14T02:35:07;10.60;99.90
15156;DHT22;7678;50.058;8.306;2023-05-14T02:37:35;10.70;99.90
15156;DHT22;7678;50.058;8.306;2023-05-14T02:40:05;10.70;99.90
15156;DHT22;7678;50.058;8.306;2023-05-14T02:42:34;10.70;99.90
15156;DHT22;7678;50.058;8.306;2023-05-14T02:45:02;10.60;99.90
15156;DHT22;7678;50.058;8.306;2023-05-14T02:47:32;10.40;99.90
15156;DHT22;7678;50.058;8.306;2023-05-14T02:50:04;10.30;99.90
15156;DHT22;7678;50.058;8.306;2023-05-14T02:52:32;10.20;99.90
15156;DHT22;7678;50.058;8.306;2023-05-14T02:55:01;10.10;99.90
15156;DHT22;7678;50.058;8.306;2023-05-14T02:57:30;10.00;99.90
15156;DHT22;7678;50.058;8.306;2023-05-14T02:59:58;10.00;99.90
15156;DHT22;7678;50.058;8.306;2023-05-14T03:02:27;10.10;99.90
15156;DHT22;7678;50.058;8.306;2023-05-14T03:04:57;10.10;99.90
15156;DHT22;7678;50.058;8.306;2023-05-14T03:07:25;10.10;99.90
15156;DHT22;7678;50.058;8.306;2023-05-14T03:09:54;10.10;99.90
15156;DHT22;7678;50.058;8.306;2023-05-14T03:12:22;10.30;99.90
15156;DHT22;7678;50.058;8.306;2023-05-14T03:14:50;10.40;99.90
15156;DHT22;7678;50.058;8.306;2023-05-14T03:17:18;10.40;99.90
15156;DHT22;7678;50.058;8.306;2023-05-14T03:19:46;10.50;99.90
15156;DHT22;7678;50.058;8.306;2023-05-14T03:22:16;10.50;99.90
15156;DHT22;7678;50.058;8.306;2023-05-14T03:24:44;10.60;99.90
15156;DHT22;7678;50.058;8.306;2023-05-14T03:27:13;10.60;99.90
15156;DHT22;7678;50.058;8.306;2023-05-14T03:29:40;10.60;99.90
15156;DHT22;7678;50.058;8.306;2023-05-14T03:32:09;10.50;99.90
15156;DHT22;7678;50.058;8.306;2023-05-14T03:34:37;10.50;99.90
15156;DHT22;7678;50.058;8.306;2023-05-14T03:37:05;10.50;99.90
15156;DHT22;7678;50.058;8.306;2023-05-14T03:39:35;10.50;99.90
15156;DHT22;7678;50.058;8.306;2023-05-14T03:42:04;10.40;99.90
15156;DHT22;7678;50.058;8.306;2023-05-14T03:44:32;10.30;99.90
15156;DHT22;7678;50.058;8.306;2023-05-14T03:47:00;10.40;99.90
15156;DHT22;7678;50.058;8.306;2023-05-14T03:49:28;10.30;99.90
15156;DHT22;7678;50.058;8.306;2023-05-14T03:51:56;10.20;99.90
15156;DHT22;7678;50.058;8.306;2023-05-14T03:54:25;10.30;99.90
15156;DHT22;7678;50.058;8.306;2023-05-14T03:56:54;10.30;99.90
15156;DHT22;7678;50.058;8.306;2023-05-14T03:59:22;10.20;99.90
15156;DHT22;7678;50.058;8.306;2023-05-14T04:01:51;10.30;99.90
15156;DHT22;7678;50.058;8.306;2023-05-14T04:04:19;10.40;99.90
15156;DHT22;7678;50.058;8.306;2023-05-14T04:06:47;10.20;99.90
15156;DHT22;7678;50.058;8.306;2023-05-14T04:09:15;10.30;99.90
15156;DHT22;7678;50.058;8.306;2023-05-14T04:11:43;10.20;99.90
15156;DHT22;7678;50.058;8.306;2023-05-14T04:14:13;10.20;99.90
15156;DHT22;7678;50.058;8.306;2023-05-14T04:16:41;10.40;99.90
15156;DHT22;7678;50.058;8.306;2023-05-14T04:19:09;10.30;99.90
15156;DHT22;7678;50.058;8.306;2023-05-14T04:21:38;10.40;99.90
15156;DHT22;7678;50.058;8.306;2023-05-14T04:24:06;10.30;99.90
15156;DHT22;7678;50.058;8.306;2023-05-14T04:26:34;10.30;99.90
15156;DHT22;7678;50.058;8.306;2023-05-14T04:29:03;10.30;99.90
15156;DHT22;7678;50.058;8.306;2023-05-14T04:31:32;10.40;99.90
15156;DHT22;7678;50.058;8.306;2023-05-14T04:34:00;10.40;99.90
15156;DHT22;7678;50.058;8.306;2023-05-14T04:36:28;10.40;99.90
15156;DHT22;7678;50.058;8.306;2023-05-14T04:38:57;10.40;99.90
15156;DHT22;7678;50.058;8.306;2023-05-14T04:41:25;10.40;99.90
15156;DHT22;7678;50.058;8.306;2023-05-14T04:43:55;10.40;99.90
15156;DHT22;7678;50.058;8.306;2023-05-14T04:46:23;10.50;99.90
15156;DHT22;7678;50.058;8.306;2023-05-14T04:48:52;10.60;99.90
15156;DHT22;7678;50.058;8.306;2023-05-14T04:51:21;10.60;99.90
15156;DHT22;7678;50.058;8.306;2023-05-14T04:53:49;10.70;99.90
15156;DHT22;7678;50.058;8.306;2023-05-14T04:56:15;10.80;99.90
15156;DHT22;7678;50.058;8.306;2023-05-14T04:58:43;10.90;99.90
15156;DHT22;7678;50.058;8.306;2023-05-14T05:01:11;11.10;99.90
15156;DHT22;7678;50.058;8.306;2023-05-14T05:03:39;11.30;99.90
15156;DHT22;7678;50.058;8.306;2023-05-14T05:06:08;11.40;99.90
15156;DHT22;7678;50.058;8.306;2023-05-14T05:08:37;11.70;99.90
15156;DHT22;7678;50.058;8.306;2023-05-14T05:11:05;11.90;99.90
15156;DHT22;7678;50.058;8.306;2023-05-14T05:13:33;12.30;99.90
15156;DHT22;7678;50.058;8.306;2023-05-14T05:16:02;12.30;99.90
15156;DHT22;7678;50.058;8.306;2023-05-14T05:18:30;12.40;99.90
15156;DHT22;7678;50.058;8.306;2023-05-14T05:20:58;12.60;99.90
15156;DHT22;7678;50.058;8.306;2023-05-14T05:23:28;12.70;99.90
15156;DHT22;7678;50.058;8.306;2023-05-14T05:25:56;12.70;99.90
15156;DHT22;7678;50.058;8.306;2023-05-14T05:28:24;12.70;99.90
15156;DHT22;7678;50.058;8.306;2023-05-14T05:30:52;12.80;99.90
15156;DHT22;7678;50.058;8.306;2023-05-14T05:33:20;12.70;99.90
15156;DHT22;7678;50.058;8.306;2023-05-14T05:35:49;12.80;99.90
15156;DHT22;7678;50.058;8.306;2023-05-14T05:38:18;12.80;99.90
15156;DHT22;7678;50.058;8.306;2023-05-14T05:40:48;12.90;99.90
15156;DHT22;7678;50.058;8.306;2023-05-14T05:43:16;13.10;99.90
15156;DHT22;7678;50.058;8.306;2023-05-14T05:45:44;13.20;99.90
15156;DHT22;7678;50.058;8.306;2023-05-14T05:48:12;13.40;99.90
15156;DHT22;7678;50.058;8.306;2023-05-14T05:50:40;13.40;99.90
15156;DHT22;7678;50.058;8.306;2023-05-14T05:53:10;13.50;99.90
15156;DHT22;7678;50.058;8.306;2023-05-14T05:55:39;13.50;99.90
15156;DHT22;7678;50.058;8.306;2023-05-14T05:58:09;13.40;99.90
15156;DHT22;7678;50.058;8.306;2023-05-14T06:00:37;13.50;99.90
15156;DHT22;7678;50.058;8.306;2023-05-14T06:03:05;13.60;99.90
15156;DHT22;7678;50.058;8.306;2023-05-14T06:05:33;13.60;99.90
15156;DHT22;7678;50.058;8.306;2023-05-14T06:08:02;13.70;99.90
15156;DHT22;7678;50.058;8.306;2023-05-14T06:10:30;13.80;99.90
15156;DHT22;7678;50.058;8.306;2023-05-14T06:12:58;13.80;99.90
15156;DHT22;7678;50.058;8.306;2023-05-14T06:15:28;13.80;99.90
15156;DHT22;7678;50.058;8.306;2023-05-14T06:17:56;13.80;99.90
15156;DHT22;7678;50.058;8.306;2023-05-14T06:20:25;13.90;99.90
15156;DHT22;7678;50.058;8.306;2023-05-14T06:22:52;13.90;99.90
15156;DHT22;7678;50.058;8.306;2023-05-14T06:25:21;14.00;99.90
15156;DHT22;7678;50.058;8.306;2023-05-14T06:27:49;14.10;99.90
15156;DHT22;7678;50.058;8.306;2023-05-14T06:30:17;14.20;99.90
15156;DHT22;7678;50.058;8.306;2023-05-14T06:32:47;14.30;99.90
15156;DHT22;7678;50.058;8.306;2023-05-14T06:35:16;14.30;99.90
15156;DHT22;7678;50.058;8.306;2023-05-14T06:37:44;14.10;99.90
15156;DHT22;7678;50.058;8.306;2023-05-14T06:40:13;14.00;99.90
15156;DHT22;7678;50.058;8.306;2023-05-14T06:42:42;13.90;99.90
15156;DHT22;7678;50.058;8.306;2023-05-14T06:45:10;13.90;99.90
15156;DHT22;7678;50.058;8.306;2023-05-14T06:47:39;14.10;99.90
15156;DHT22;7678;50.058;8.306;2023-05-14T06:50:09;14.30;99.90
15156;DHT22;7678;50.058;8.306;2023-05-14T06:52:37;14.40;99.90
15156;DHT22;7678;50.058;8.306;2023-05-14T06:55:06;14.50;99.90
15156;DHT22;7678;50.058;8.306;2023-05-14T06:57:34;14.50;99.90
15156;DHT22;7678;50.058;8.306;2023-05-14T07:00:07;14.80;99.90
15156;DHT22;7678;50.058;8.306;2023-05-14T07:02:35;14.80;99.90
15156;DHT22;7678;50.058;8.306;2023-05-14T07:05:04;14.90;99.90
15156;DHT22;7678;50.058;8.306;2023-05-14T07:07:35;15.10;99.90
15156;DHT22;7678;50.058;8.306;2023-05-14T07:10:04;15.10;99.90
15156;DHT22;7678;50.058;8.306;2023-05-14T07:12:34;15.10;99.90
15156;DHT22;7678;50.058;8.306;2023-05-14T07:15:02;15.20;99.90
15156;DHT22;7678;50.058;8.306;2023-05-14T07:17:31;15.20;99.90
15156;DHT22;7678;50.058;8.306;2023-05-14T07:19:59;15.50;99.90
15156;DHT22;7678;50.058;8.306;2023-05-14T07:22:27;15.60;99.90
15156;DHT22;7678;50.058;8.306;2023-05-14T07:24:57;15.80;99.90
15156;DHT22;7678;50.058;8.306;2023-05-14T07:27:25;15.90;99.90
15156;DHT22;7678;50.058;8.306;2023-05-14T07:29:53;16.00;99.90
15156;DHT22;7678;50.058;8.306;2023-05-14T07:32:21;16.00;99.90
15156;DHT22;7678;50.058;8.306;2023-05-14T07:34:50;16.00;99.90
15156;DHT22;7678;50.058;8.306;2023-05-14T07:37:18;16.30;99.90
15156;DHT22;7678;50.058;8.306;2023-05-14T07:39:49;16.60;99.90
15156;DHT22;7678;50.058;8.306;2023-05-14T07:42:21;16.80;99.90
15156;DHT22;7678;50.058;8.306;2023-05-14T07:45:02;16.80;99.90
15156;DHT22;7678;50.058;8.306;2023-05-14T07:47:30;16.70;99.90
15156;DHT22;7678;50.058;8.306;2023-05-14T07:49:58;16.60;99.90
15156;DHT22;7678;50.058;8.306;2023-05-14T07:52:26;16.30;99.90
15156;DHT22;7678;50.058;8.306;2023-05-14T07:54:54;16.30;99.90
15156;DHT22;7678;50.058;8.306;2023-05-14T07:57:24;16.50;99.90
15156;DHT22;7678;50.058;8.306;2023-05-14T07:59:52;16.70;99.90
15156;DHT22;7678;50.058;8.306;2023-05-14T08:02:20;16.60;99.90
15156;DHT22;7678;50.058;8.306;2023-05-14T08:04:49;16.40;99.90
15156;DHT22;7678;50.058;8.306;2023-05-14T08:07:17;16.40;99.90
15156;DHT22;7678;50.058;8.306;2023-05-14T08:09:46;16.30;99.90
15156;DHT22;7678;50.058;8.306;2023-05-14T08:12:14;16.30;99.90
15156;DHT22;7678;50.058;8.306;2023-05-14T08:14:44;16.50;99.90
15156;DHT22;7678;50.058;8.306;2023-05-14T08:17:12;16.60;99.90
15156;DHT22;7678;50.058;8.306;2023-05-14T08:19:40;16.50;99.90
15156;DHT22;7678;50.058;8.306;2023-05-14T08:22:08;16.30;99.90
15156;DHT22;7678;50.058;8.306;2023-05-14T08:24:36;16.40;99.90
15156;DHT22;7678;50.058;8.306;2023-05-14T08:27:04;16.60;99.90
15156;DHT22;7678;50.058;8.306;2023-05-14T08:29:33;16.70;99.90
15156;DHT22;7678;50.058;8.306;2023-05-14T08:32:03;16.80;99.90
15156;DHT22;7678;50.058;8.306;2023-05-14T08:34:48;17.00;99.90
15156;DHT22;7678;50.058;8.306;2023-05-14T08:37:17;17.10;99.90
15156;DHT22;7678;50.058;8.306;2023-05-14T08:39:46;17.20;99.90
15156;DHT22;7678;50.058;8.306;2023-05-14T08:42:14;17.70;99.90
15156;DHT22;7678;50.058;8.306;2023-05-14T08:44:48;17.80;99.90
15156;DHT22;7678;50.058;8.306;2023-05-14T08:47:20;17.50;99.90
15156;DHT22;7678;50.058;8.306;2023-05-14T08:49:51;17.70;99.90
15156;DHT22;7678;50.058;8.306;2023-05-14T08:52:21;17.70;99.90
15156;DHT22;7678;50.058;8.306;2023-05-14T08:54:50;17.80;99.90
15156;DHT22;7678;50.058;8.306;2023-05-14T08:57:20;17.50;99.90
15156;DHT22;7678;50.058;8.306;2023-05-14T08:59:50;17.60;99.90
15156;DHT22;7678;50.058;8.306;2023-05-14T09:02:22;17.20;99.90
15156;DHT22;7678;50.058;8.306;2023-05-14T09:04:54;17.30;99.90
15156;DHT22;7678;50.058;8.306;2023-05-14T09:07:23;17.50;99.40
15156;DHT22;7678;50.058;8.306;2023-05-14T09:09:52;17.20;99.90
15156;DHT22;7678;50.058;8.306;2023-05-14T09:12:20;17.30;99.90
15156;DHT22;7678;50.058;8.306;2023-05-14T09:14:49;17.60;99.90
15156;DHT22;7678;50.058;8.306;2023-05-14T09:17:19;17.70;99.60
15156;DHT22;7678;50.058;8.306;2023-05-14T09:19:48;17.70;99.50
15156;DHT22;7678;50.058;8.306;2023-05-14T09:22:19;17.60;98.80
15156;DHT22;7678;50.058;8.306;2023-05-14T09:25:01;17.40;99.60
15156;DHT22;7678;50.058;8.306;2023-05-14T09:27:30;17.50;99.90
15156;DHT22;7678;50.058;8.306;2023-05-14T09:30:06;17.40;99.90
15156;DHT22;7678;50.058;8.306;2023-05-14T09:32:37;17.30;99.40
15156;DHT22;7678;50.058;8.306;2023-05-14T09:35:11;17.50;99.90
15156;DHT22;7678;50.058;8.306;2023-05-14T09:37:41;17.60;98.50
15156;DHT22;7678;50.058;8.306;2023-05-14T09:40:11;17.90;98.30
15156;DHT22;7678;50.058;8.306;2023-05-14T09:42:40;18.00;97.70
15156;DHT22;7678;50.058;8.306;2023-05-14T09:45:09;18.00;98.90
15156;DHT22;7678;50.058;8.306;2023-05-14T09:47:38;18.20;98.90
15156;DHT22;7678;50.058;8.306;2023-05-14T09:50:07;18.30;97.50
15156;DHT22;7678;50.058;8.306;2023-05-14T09:52:36;18.40;98.80
15156;DHT22;7678;50.058;8.306;2023-05-14T09:55:05;18.60;98.50
15156;DHT22;7678;50.058;8.306;2023-05-14T09:57:34;18.70;96.00
15156;DHT22;7678;50.058;8.306;2023-05-14T10:00:03;18.50;97.00
15156;DHT22;7678;50.058;8.306;2023-05-14T10:02:34;18.30;97.10
15156;DHT22;7678;50.058;8.306;2023-05-14T10:05:07;18.20;98.60
15156;DHT22;7678;50.058;8.306;2023-05-14T10:07:39;18.10;97.90
15156;DHT22;7678;50.058;8.306;2023-05-14T10:10:12;18.50;98.30
15156;DHT22;7678;50.058;8.306;2023-05-14T10:12:45;19.00;95.60
15156;DHT22;7678;50.058;8.306;2023-05-14T10:15:18;19.30;95.80
15156;DHT22;7678;50.058;8.306;2023-05-14T10:17:50;19.40;94.50
15156;DHT22;7678;50.058;8.306;2023-05-14T10:20:22;19.10;96.20
15156;DHT22;7678;50.058;8.306;2023-05-14T10:22:52;19.30;96.00
15156;DHT22;7678;50.058;8.306;2023-05-14T10:25:21;19.20;93.50
15156;DHT22;7678;50.058;8.306;2023-05-14T10:27:51;18.90;95.30
15156;DHT22;7678;50.058;8.306;2023-05-14T10:30:20;19.00;95.80
15156;DHT22;7678;50.058;8.306;2023-05-14T10:33:04;18.80;94.30
15156;DHT22;7678;50.058;8.306;2023-05-14T10:35:57;19.00;96.30
15156;DHT22;7678;50.058;8.306;2023-05-14T10:38:27;18.90;97.30
15156;DHT22;7678;50.058;8.306;2023-05-14T10:41:02;18.90;95.00
15156;DHT22;7678;50.058;8.306;2023-05-14T10:43:35;18.90;94.10
15156;DHT22;7678;50.058;8.306;2023-05-14T10:46:05;19.00;96.40
15156;DHT22;7678;50.058;8.306;2023-05-14T10:48:33;18.90;94.80
15156;DHT22;7678;50.058;8.306;2023-05-14T10:51:06;19.10;92.40
15156;DHT22;7678;50.058;8.306;2023-05-14T10:53:36;19.10;92.10
15156;DHT22;7678;50.058;8.306;2023-05-14T10:56:09;19.60;92.40
15156;DHT22;7678;50.058;8.306;2023-05-14T10:58:38;19.80;94.20
15156;DHT22;7678;50.058;8.306;2023-05-14T11:01:09;20.00;88.30
15156;DHT22;7678;50.058;8.306;2023-05-14T11:03:42;20.00;88.70
15156;DHT22;7678;50.058;8.306;2023-05-14T11:06:14;20.00;82.70
15156;DHT22;7678;50.058;8.306;2023-05-14T11:08:42;20.10;89.50
15156;DHT22;7678;50.058;8.306;2023-05-14T11:11:13;19.60;88.30
15156;DHT22;7678;50.058;8.306;2023-05-14T11:13:41;19.60;89.10
15156;DHT22;7678;50.058;8.306;2023-05-14T11:16:10;19.20;86.50
15156;DHT22;7678;50.058;8.306;2023-05-14T11:18:52;19.10;88.40
15156;DHT22;7678;50.058;8.306;2023-05-14T11:21:22;19.30;89.90
15156;DHT22;7678;50.058;8.306;2023-05-14T11:23:51;19.70;92.80
15156;DHT22;7678;50.058;8.306;2023-05-14T11:26:18;19.60;89.10
15156;DHT22;7678;50.058;8.306;2023-05-14T11:28:47;19.60;88.50
15156;DHT22;7678;50.058;8.306;2023-05-14T11:31:16;19.80;88.10
15156;DHT22;7678;50.058;8.306;2023-05-14T11:33:44;19.90;88.90
15156;DHT22;7678;50.058;8.306;2023-05-14T11:36:12;19.90;88.00
15156;DHT22;7678;50.058;8.306;2023-05-14T11:38:48;19.90;90.00
15156;DHT22;7678;50.058;8.306;2023-05-14T11:41:18;20.00;89.40
15156;DHT22;7678;50.058;8.306;2023-05-14T11:43:49;20.10;87.00
15156;DHT22;7678;50.058;8.306;2023-05-14T11:46:17;19.90;88.60
15156;DHT22;7678;50.058;8.306;2023-05-14T11:48:45;19.90;93.40
15156;DHT22;7678;50.058;8.306;2023-05-14T11:51:13;20.00;93.10
15156;DHT22;7678;50.058;8.306;2023-05-14T11:53:41;20.10;90.20
15156;DHT22;7678;50.058;8.306;2023-05-14T11:56:11;19.90;91.30
15156;DHT22;7678;50.058;8.306;2023-05-14T11:58:39;19.90;92.40
15156;DHT22;7678;50.058;8.306;2023-05-14T12:01:12;20.10;90.90
15156;DHT22;7678;50.058;8.306;2023-05-14T12:03:40;20.20;87.30
15156;DHT22;7678;50.058;8.306;2023-05-14T12:06:08;20.20;91.80
15156;DHT22;7678;50.058;8.306;2023-05-14T12:08:37;19.90;93.00
15156;DHT22;7678;50.058;8.306;2023-05-14T12:11:05;19.70;86.70
15156;DHT22;7678;50.058;8.306;2023-05-14T12:13:35;19.80;91.00
15156;DHT22;7678;50.058;8.306;2023-05-14T12:16:04;20.10;91.10
15156;DHT22;7678;50.058;8.306;2023-05-14T12:18:32;19.90;91.00
15156;DHT22;7678;50.058;8.306;2023-05-14T12:21:02;20.60;88.50
15156;DHT22;7678;50.058;8.306;2023-05-14T12:23:30;21.00;90.30
15156;DHT22;7678;50.058;8.306;2023-05-14T12:26:01;20.90;81.10
15156;DHT22;7678;50.058;8.306;2023-05-14T12:28:31;20.50;80.40
15156;DHT22;7678;50.058;8.306;2023-05-14T12:31:05;20.10;82.00
15156;DHT22;7678;50.058;8.306;2023-05-14T12:33:33;20.50;83.80
15156;DHT22;7678;50.058;8.306;2023-05-14T12:36:01;20.70;80.60
15156;DHT22;7678;50.058;8.306;2023-05-14T12:38:32;20.20;86.90
15156;DHT22;7678;50.058;8.306;2023-05-14T12:41:00;19.40;92.10
15156;DHT22;7678;50.058;8.306;2023-05-14T12:43:31;19.00;93.00
15156;DHT22;7678;50.058;8.306;2023-05-14T12:45:59;19.30;91.30
15156;DHT22;7678;50.058;8.306;2023-05-14T12:48:28;19.30;92.10
15156;DHT22;7678;50.058;8.306;2023-05-14T12:50:56;19.60;92.70
15156;DHT22;7678;50.058;8.306;2023-05-14T12:53:24;19.80;91.50
15156;DHT22;7678;50.058;8.306;2023-05-14T12:55:53;20.20;90.20
15156;DHT22;7678;50.058;8.306;2023-05-14T12:58:21;21.10;86.20
15156;DHT22;7678;50.058;8.306;2023-05-14T13:00:49;20.50;83.90
15156;DHT22;7678;50.058;8.306;2023-05-14T13:03:18;20.40;84.20
15156;DHT22;7678;50.058;8.306;2023-05-14T13:05:49;20.10;91.10
15156;DHT22;7678;50.058;8.306;2023-05-14T13:08:17;20.10;88.00
15156;DHT22;7678;50.058;8.306;2023-05-14T13:10:47;20.50;85.10
15156;DHT22;7678;50.058;8.306;2023-05-14T13:13:16;20.90;82.10
15156;DHT22;7678;50.058;8.306;2023-05-14T13:15:44;21.20;75.50
15156;DHT22;7678;50.058;8.306;2023-05-14T13:18:15;21.60;78.00
15156;DHT22;7678;50.058;8.306;2023-05-14T13:20:44;22.10;77.10
15156;DHT22;7678;50.058;8.306;2023-05-14T13:23:16;22.10;68.50
15156;DHT22;7678;50.058;8.306;2023-05-14T13:25:44;22.20;71.90
15156;DHT22;7678;50.058;8.306;2023-05-14T13:28:15;22.10;68.10
15156;DHT22;7678;50.058;8.306;2023-05-14T13:31:03;21.90;67.50
15156;DHT22;7678;50.058;8.306;2023-05-14T13:33:33;22.40;67.00
15156;DHT22;7678;50.058;8.306;2023-05-14T13:36:02;22.50;63.90
15156;DHT22;7678;50.058;8.306;2023-05-14T13:38:32;21.90;71.00
15156;DHT22;7678;50.058;8.306;2023-05-14T13:41:01;21.00;71.90
15156;DHT22;7678;50.058;8.306;2023-05-14T13:43:29;20.30;74.90
15156;DHT22;7678;50.058;8.306;2023-05-14T13:45:58;20.10;80.10
15156;DHT22;7678;50.058;8.306;2023-05-14T13:48:26;20.10;83.80
15156;DHT22;7678;50.058;8.306;2023-05-14T13:50:54;20.50;80.90
15156;DHT22;7678;50.058;8.306;2023-05-14T13:53:23;21.30;74.50
15156;DHT22;7678;50.058;8.306;2023-05-14T13:55:53;21.50;74.00
15156;DHT22;7678;50.058;8.306;2023-05-14T13:58:26;21.70;73.80
15156;DHT22;7678;50.058;8.306;2023-05-14T14:00:56;22.00;73.70
15156;DHT22;7678;50.058;8.306;2023-05-14T14:03:24;22.00;73.50
15156;DHT22;7678;50.058;8.306;2023-05-14T14:05:52;21.70;72.60
15156;DHT22;7678;50.058;8.306;2023-05-14T14:08:20;21.10;75.60
15156;DHT22;7678;50.058;8.306;2023-05-14T14:10:50;20.80;76.40
15156;DHT22;7678;50.058;8.306;2023-05-14T14:13:22;20.30;77.20
15156;DHT22;7678;50.058;8.306;2023-05-14T14:15:50;20.80;79.30
